sensor_id;sensor_type;location;lat;lon;timestamp;temperature;humidity
8717;DHT22;4395;48.554;8.820;2022-12-11T00:00:41;-2.40;99.90
8717;DHT22;4395;48.554;8.820;2022-12-11T00:02:44;-2.30;99.90
8717;DHT22;4395;48.554;8.820;2022-12-11T00:04:47;-2.50;99.90
8717;DHT22;4395;48.554;8.820;2022-12-11T00:06:50;-2.50;99.90
8717;DHT22;4395;48.554;8.820;2022-12-11T00:08:55;-2.50;99.90
8717;DHT22;4395;48.554;8.820;2022-12-11T00:10:58;-2.50;99.90
8717;DHT22;4395;48.554;8.820;2022-12-11T00:13:02;-2.60;99.90
8717;DHT22;4395;48.554;8.820;2022-12-11T00:15:06;-2.60;99.90
8717;DHT22;4395;48.554;8.820;2022-12-11T00:17:12;-2.70;99.90
8717;DHT22;4395;48.554;8.820;2022-12-11T00:19:15;-2.70;99.90
8717;DHT22;4395;48.554;8.820;2022-12-11T00:21:18;-2.80;99.90
8717;DHT22;4395;48.554;8.820;2022-12-11T00:23:21;-2.90;99.90
8717;DHT22;4395;48.554;8.820;2022-12-11T00:25:26;-2.90;99.90
8717;DHT22;4395;48.554;8.820;2022-12-11T00:27:29;-3.00;99.90
8717;DHT22;4395;48.554;8.820;2022-12-11T00:29:33;-2.90;99.90
8717;DHT22;4395;48.554;8.820;2022-12-11T00:31:36;-2.80;99.90
8717;DHT22;4395;48.554;8.820;2022-12-11T00:33:39;-2.70;99.90
8717;DHT22;4395;48.554;8.820;2022-12-11T00:35:44;-2.70;99.90
8717;DHT22;4395;48.554;8.820;2022-12-11T00:37:48;-2.70;99.90
8717;DHT22;4395;48.554;8.820;2022-12-11T00:39:51;-2.80;99.90
8717;DHT22;4395;48.554;8.820;2022-12-11T00:41:56;-2.80;99.90
8717;DHT22;4395;48.554;8.820;2022-12-11T00:43:59;-2.80;99.90
8717;DHT22;4395;48.554;8.820;2022-12-11T00:46:03;-2.90;99.90
8717;DHT22;4395;48.554;8.820;2022-12-11T00:48:08;-3.00;99.90
8717;DHT22;4395;48.554;8.820;2022-12-11T00:50:12;-3.00;99.90
8717;DHT22;4395;48.554;8.820;2022-12-11T00:52:15;-3.00;99.90
8717;DHT22;4395;48.554;8.820;2022-12-11T00:54:19;-2.90;99.90
8717;DHT22;4395;48.554;8.820;2022-12-11T00:56:22;-3.00;99.90
8717;DHT22;4395;48.554;8.820;2022-12-11T00:58:27;-3.00;99.90
8717;DHT22;4395;48.554;8.820;2022-12-11T01:00:30;-3.00;99.90
8717;DHT22;4395;48.554;8.820;2022-12-11T01:02:34;-3.00;99.90
8717;DHT22;4395;48.554;8.820;2022-12-11T01:04:37;-3.00;99.90
8717;DHT22;4395;48.554;8.820;2022-12-11T01:06:40;-3.00;99.90
8717;DHT22;4395;48.554;8.820;2022-12-11T01:08:44;-3.00;99.90
8717;DHT22;4395;48.554;8.820;2022-12-11T01:10:48;-3.00;99.90
8717;DHT22;4395;48.554;8.820;2022-12-11T01:12:52;-3.00;99.90
8717;DHT22;4395;48.554;8.820;2022-12-11T01:14:57;-3.00;99.90
8717;DHT22;4395;48.554;8.820;2022-12-11T01:17:00;-2.90;99.90
8717;DHT22;4395;48.554;8.820;2022-12-11T01:19:04;-2.80;99.90
8717;DHT22;4395;48.554;8.820;2022-12-11T01:21:08;-2.70;99.90
8717;DHT22;4395;48.554;8.820;2022-12-11T01:23:13;-2.80;99.90
8717;DHT22;4395;48.554;8.820;2022-12-11T01:25:16;-2.70;99.90
8717;DHT22;4395;48.554;8.820;2022-12-11T01:27:19;-2.70;99.90
8717;DHT22;4395;48.554;8.820;2022-12-11T01:29:22;-2.70;99.90
8717;DHT22;4395;48.554;8.820;2022-12-11T01:31:27;-2.70;99.90
8717;DHT22;4395;48.554;8.820;2022-12-11T01:33:30;-2.80;99.90
8717;DHT22;4395;48.554;8.820;2022-12-11T01:35:33;-2.70;99.90
8717;DHT22;4395;48.554;8.820;2022-12-11T01:37:37;-2.60;99.90
8717;DHT22;4395;48.554;8.820;2022-12-11T01:39:40;-2.60;99.90
8717;DHT22;4395;48.554;8.820;2022-12-11T01:41:43;-2.60;99.90
8717;DHT22;4395;48.554;8.820;2022-12-11T01:43:57;-2.50;99.90
8717;DHT22;4395;48.554;8.820;2022-12-11T01:46:01;-2.40;99.90
8717;DHT22;4395;48.554;8.820;2022-12-11T01:48:09;-2.40;99.90
8717;DHT22;4395;48.554;8.820;2022-12-11T01:50:13;-2.40;99.90
8717;DHT22;4395;48.554;8.820;2022-12-11T01:52:18;-2.50;99.90
8717;DHT22;4395;48.554;8.820;2022-12-11T01:54:25;-2.50;99.90
8717;DHT22;4395;48.554;8.820;2022-12-11T01:56:30;-2.60;99.90
8717;DHT22;4395;48.554;8.820;2022-12-11T01:58:39;-2.60;99.90
8717;DHT22;4395;48.554;8.820;2022-12-11T02:00:44;-2.60;99.90
8717;DHT22;4395;48.554;8.820;2022-12-11T02:02:48;-2.70;99.90
8717;DHT22;4395;48.554;8.820;2022-12-11T02:04:52;-2.60;99.90
8717;DHT22;4395;48.554;8.820;2022-12-11T02:06:56;-2.60;99.90
8717;DHT22;4395;48.554;8.820;2022-12-11T02:08:59;-2.70;99.90
8717;DHT22;4395;48.554;8.820;2022-12-11T02:11:06;-2.70;99.90
8717;DHT22;4395;48.554;8.820;2022-12-11T02:13:15;-2.70;99.90
8717;DHT22;4395;48.554;8.820;2022-12-11T02:15:29;-2.70;99.90
8717;DHT22;4395;48.554;8.820;2022-12-11T02:17:37;-2.70;99.90
8717;DHT22;4395;48.554;8.820;2022-12-11T02:19:53;-2.80;99.90
8717;DHT22;4395;48.554;8.820;2022-12-11T02:22:02;-2.70;99.90
8717;DHT22;4395;48.554;8.820;2022-12-11T02:24:37;-2.70;99.90
8717;DHT22;4395;48.554;8.820;2022-12-11T02:27:21;-2.80;99.90
8717;DHT22;4395;48.554;8.820;2022-12-11T02:29:34;-2.90;99.90
8717;DHT22;4395;48.554;8.820;2022-12-11T02:31:41;-3.10;99.90
8717;DHT22;4395;48.554;8.820;2022-12-11T02:33:51;-3.10;99.90
8717;DHT22;4395;48.554;8.820;2022-12-11T02:36:01;-3.10;99.90
8717;DHT22;4395;48.554;8.820;2022-12-11T02:38:09;-3.00;99.90
8717;DHT22;4395;48.554;8.820;2022-12-11T02:40:20;-3.10;99.90
8717;DHT22;4395;48.554;8.820;2022-12-11T02:42:28;-3.10;99.90
8717;DHT22;4395;48.554;8.820;2022-12-11T02:44:35;-3.10;99.90
8717;DHT22;4395;48.554;8.820;2022-12-11T02:46:40;-3.10;99.90
8717;DHT22;4395;48.554;8.820;2022-12-11T02:48:45;-3.10;99.90
8717;DHT22;4395;48.554;8.820;2022-12-11T02:50:52;-3.10;99.90
8717;DHT22;4395;48.554;8.820;2022-12-11T02:52:58;-3.20;99.90
8717;DHT22;4395;48.554;8.820;2022-12-11T02:55:05;-3.30;99.90
8717;DHT22;4395;48.554;8.820;2022-12-11T02:57:12;-3.40;99.90
8717;DHT22;4395;48.554;8.820;2022-12-11T02:59:22;-3.30;99.90
8717;DHT22;4395;48.554;8.820;2022-12-11T03:01:29;-3.40;99.90
8717;DHT22;4395;48.554;8.820;2022-12-11T03:03:32;-3.40;99.90
8717;DHT22;4395;48.554;8.820;2022-12-11T03:05:35;-3.40;99.90
8717;DHT22;4395;48.554;8.820;2022-12-11T03:07:40;-3.50;99.90
8717;DHT22;4395;48.554;8.820;2022-12-11T03:09:46;-3.60;99.90
8717;DHT22;4395;48.554;8.820;2022-12-11T03:11:51;-3.60;99.90
8717;DHT22;4395;48.554;8.820;2022-12-11T03:13:54;-3.60;99.90
8717;DHT22;4395;48.554;8.820;2022-12-11T03:16:06;-3.60;99.90
8717;DHT22;4395;48.554;8.820;2022-12-11T03:18:21;-3.60;99.90
8717;DHT22;4395;48.554;8.820;2022-12-11T03:20:35;-3.60;99.90
8717;DHT22;4395;48.554;8.820;2022-12-11T03:22:44;-3.60;99.90
8717;DHT22;4395;48.554;8.820;2022-12-11T03:24:54;-3.50;99.90
8717;DHT22;4395;48.554;8.820;2022-12-11T03:27:04;-3.50;99.90
8717;DHT22;4395;48.554;8.820;2022-12-11T03:29:18;-3.50;99.90
8717;DHT22;4395;48.554;8.820;2022-12-11T03:31:25;-3.60;99.90
8717;DHT22;4395;48.554;8.820;2022-12-11T03:33:36;-3.60;99.90
8717;DHT22;4395;48.554;8.820;2022-12-11T03:35:44;-3.50;99.90
8717;DHT22;4395;48.554;8.820;2022-12-11T03:37:52;-3.50;99.90
8717;DHT22;4395;48.554;8.820;2022-12-11T03:40:00;-3.50;99.90
8717;DHT22;4395;48.554;8.820;2022-12-11T03:42:07;-3.50;99.90
8717;DHT22;4395;48.554;8.820;2022-12-11T03:44:13;-3.50;99.90
8717;DHT22;4395;48.554;8.820;2022-12-11T03:46:20;-3.50;99.90
8717;DHT22;4395;48.554;8.820;2022-12-11T03:48:27;-3.40;99.90
8717;DHT22;4395;48.554;8.820;2022-12-11T03:50:34;-3.30;99.90
8717;DHT22;4395;48.554;8.820;2022-12-11T03:52:39;-3.30;99.90
8717;DHT22;4395;48.554;8.820;2022-12-11T03:54:48;-3.40;99.90
8717;DHT22;4395;48.554;8.820;2022-12-11T03:56:54;-3.40;99.90
8717;DHT22;4395;48.554;8.820;2022-12-11T03:58:59;-3.40;99.90
8717;DHT22;4395;48.554;8.820;2022-12-11T04:01:02;-3.50;99.90
8717;DHT22;4395;48.554;8.820;2022-12-11T04:03:05;-3.40;99.90
8717;DHT22;4395;48.554;8.820;2022-12-11T04:05:15;-3.40;99.90
8717;DHT22;4395;48.554;8.820;2022-12-11T04:07:20;-3.30;99.90
8717;DHT22;4395;48.554;8.820;2022-12-11T04:09:23;-3.40;99.90
8717;DHT22;4395;48.554;8.820;2022-12-11T04:11:26;-3.40;99.90
8717;DHT22;4395;48.554;8.820;2022-12-11T04:13:41;-3.40;99.90
8717;DHT22;4395;48.554;8.820;2022-12-11T04:15:44;-3.40;99.90
8717;DHT22;4395;48.554;8.820;2022-12-11T04:17:46;-3.50;99.90
8717;DHT22;4395;48.554;8.820;2022-12-11T04:20:09;-3.50;99.90
8717;DHT22;4395;48.554;8.820;2022-12-11T04:22:32;-3.50;99.90
8717;DHT22;4395;48.554;8.820;2022-12-11T04:24:53;-3.60;99.90
8717;DHT22;4395;48.554;8.820;2022-12-11T04:26:57;-3.60;99.90
8717;DHT22;4395;48.554;8.820;2022-12-11T04:29:00;-3.60;99.90
8717;DHT22;4395;48.554;8.820;2022-12-11T04:31:04;-3.60;99.90
8717;DHT22;4395;48.554;8.820;2022-12-11T04:33:07;-3.50;99.90
8717;DHT22;4395;48.554;8.820;2022-12-11T04:35:11;-3.60;99.90
8717;DHT22;4395;48.554;8.820;2022-12-11T04:37:15;-3.60;99.90
8717;DHT22;4395;48.554;8.820;2022-12-11T04:39:19;-3.50;99.90
8717;DHT22;4395;48.554;8.820;2022-12-11T04:41:22;-3.60;99.90
8717;DHT22;4395;48.554;8.820;2022-12-11T04:43:26;-3.60;99.90
8717;DHT22;4395;48.554;8.820;2022-12-11T04:45:29;-3.50;99.90
8717;DHT22;4395;48.554;8.820;2022-12-11T04:47:33;-3.50;99.90
8717;DHT22;4395;48.554;8.820;2022-12-11T04:49:36;-3.40;99.90
8717;DHT22;4395;48.554;8.820;2022-12-11T04:51:40;-3.40;99.90
8717;DHT22;4395;48.554;8.820;2022-12-11T04:53:43;-3.30;99.90
8717;DHT22;4395;48.554;8.820;2022-12-11T04:55:48;-3.40;99.90
8717;DHT22;4395;48.554;8.820;2022-12-11T04:57:51;-3.30;99.90
8717;DHT22;4395;48.554;8.820;2022-12-11T04:59:55;-3.30;99.90
8717;DHT22;4395;48.554;8.820;2022-12-11T05:01:58;-3.20;99.90
8717;DHT22;4395;48.554;8.820;2022-12-11T05:04:01;-3.10;99.90
8717;DHT22;4395;48.554;8.820;2022-12-11T05:06:05;-3.10;99.90
8717;DHT22;4395;48.554;8.820;2022-12-11T05:08:09;-3.10;99.90
8717;DHT22;4395;48.554;8.820;2022-12-11T05:10:12;-3.10;99.90
8717;DHT22;4395;48.554;8.820;2022-12-11T05:12:17;-3.00;99.90
8717;DHT22;4395;48.554;8.820;2022-12-11T05:14:20;-3.00;99.90
8717;DHT22;4395;48.554;8.820;2022-12-11T05:16:23;-3.00;99.90
8717;DHT22;4395;48.554;8.820;2022-12-11T05:18:26;-3.10;99.90
8717;DHT22;4395;48.554;8.820;2022-12-11T05:20:30;-3.10;99.90
8717;DHT22;4395;48.554;8.820;2022-12-11T05:22:33;-3.20;99.90
8717;DHT22;4395;48.554;8.820;2022-12-11T05:24:36;-3.20;99.90
8717;DHT22;4395;48.554;8.820;2022-12-11T05:26:39;-3.20;99.90
8717;DHT22;4395;48.554;8.820;2022-12-11T05:28:44;-3.30;99.90
8717;DHT22;4395;48.554;8.820;2022-12-11T05:30:47;-3.20;99.90
8717;DHT22;4395;48.554;8.820;2022-12-11T05:32:51;-3.10;99.90
8717;DHT22;4395;48.554;8.820;2022-12-11T05:34:54;-3.00;99.90
8717;DHT22;4395;48.554;8.820;2022-12-11T05:36:58;-3.00;99.90
8717;DHT22;4395;48.554;8.820;2022-12-11T05:39:03;-3.00;99.90
8717;DHT22;4395;48.554;8.820;2022-12-11T05:41:06;-3.00;99.90
8717;DHT22;4395;48.554;8.820;2022-12-11T05:43:10;-2.80;99.90
8717;DHT22;4395;48.554;8.820;2022-12-11T05:45:15;-2.80;99.90
8717;DHT22;4395;48.554;8.820;2022-12-11T05:47:18;-2.80;99.90
8717;DHT22;4395;48.554;8.820;2022-12-11T05:49:22;-2.70;99.90
8717;DHT22;4395;48.554;8.820;2022-12-11T05:51:32;-2.70;99.90
8717;DHT22;4395;48.554;8.820;2022-12-11T05:53:36;-2.70;99.90
8717;DHT22;4395;48.554;8.820;2022-12-11T05:55:40;-2.80;99.90
8717;DHT22;4395;48.554;8.820;2022-12-11T05:57:43;-2.80;99.90
8717;DHT22;4395;48.554;8.820;2022-12-11T05:59:46;-2.90;99.90
8717;DHT22;4395;48.554;8.820;2022-12-11T06:01:51;-2.90;99.90
8717;DHT22;4395;48.554;8.820;2022-12-11T06:03:55;-3.00;99.90
8717;DHT22;4395;48.554;8.820;2022-12-11T06:06:00;-3.00;99.90
8717;DHT22;4395;48.554;8.820;2022-12-11T06:08:04;-2.90;99.90
8717;DHT22;4395;48.554;8.820;2022-12-11T06:10:08;-3.10;99.90
8717;DHT22;4395;48.554;8.820;2022-12-11T06:12:11;-3.00;99.90
8717;DHT22;4395;48.554;8.820;2022-12-11T06:14:14;-3.10;99.90
8717;DHT22;4395;48.554;8.820;2022-12-11T06:16:18;-3.00;99.90
8717;DHT22;4395;48.554;8.820;2022-12-11T06:18:23;-3.00;99.90
8717;DHT22;4395;48.554;8.820;2022-12-11T06:20:26;-2.90;99.90
8717;DHT22;4395;48.554;8.820;2022-12-11T06:22:32;-3.00;99.90
8717;DHT22;4395;48.554;8.820;2022-12-11T06:24:36;-3.00;99.90
8717;DHT22;4395;48.554;8.820;2022-12-11T06:26:39;-3.00;99.90
8717;DHT22;4395;48.554;8.820;2022-12-11T06:28:42;-3.00;99.90
8717;DHT22;4395;48.554;8.820;2022-12-11T06:30:45;-3.00;99.90
8717;DHT22;4395;48.554;8.820;2022-12-11T06:32:48;-2.90;99.90
8717;DHT22;4395;48.554;8.820;2022-12-11T06:34:53;-3.00;99.90
8717;DHT22;4395;48.554;8.820;2022-12-11T06:36:56;-2.90;99.90
8717;DHT22;4395;48.554;8.820;2022-12-11T06:38:59;-2.90;99.90
8717;DHT22;4395;48.554;8.820;2022-12-11T06:41:03;-3.00;99.90
8717;DHT22;4395;48.554;8.820;2022-12-11T06:43:07;-3.00;99.90
8717;DHT22;4395;48.554;8.820;2022-12-11T06:45:11;-3.20;99.90
8717;DHT22;4395;48.554;8.820;2022-12-11T06:47:14;-3.20;99.90
8717;DHT22;4395;48.554;8.820;2022-12-11T06:49:17;-3.20;99.90
8717;DHT22;4395;48.554;8.820;2022-12-11T06:51:22;-3.40;99.90
8717;DHT22;4395;48.554;8.820;2022-12-11T06:53:25;-3.60;99.90
8717;DHT22;4395;48.554;8.820;2022-12-11T06:55:28;-3.70;99.90
8717;DHT22;4395;48.554;8.820;2022-12-11T06:57:32;-3.70;99.90
8717;DHT22;4395;48.554;8.820;2022-12-11T06:59:35;-3.90;99.90
8717;DHT22;4395;48.554;8.820;2022-12-11T07:01:38;-3.90;99.90
8717;DHT22;4395;48.554;8.820;2022-12-11T07:03:42;-3.90;99.90
8717;DHT22;4395;48.554;8.820;2022-12-11T07:05:45;-3.90;99.90
8717;DHT22;4395;48.554;8.820;2022-12-11T07:07:52;-3.90;99.90
8717;DHT22;4395;48.554;8.820;2022-12-11T07:09:56;-3.90;99.90
8717;DHT22;4395;48.554;8.820;2022-12-11T07:12:08;-3.90;99.90
8717;DHT22;4395;48.554;8.820;2022-12-11T07:14:11;-3.80;99.90
8717;DHT22;4395;48.554;8.820;2022-12-11T07:16:15;-3.80;99.90
8717;DHT22;4395;48.554;8.820;2022-12-11T07:18:19;-3.80;99.90
8717;DHT22;4395;48.554;8.820;2022-12-11T07:20:22;-3.70;99.90
8717;DHT22;4395;48.554;8.820;2022-12-11T07:22:25;-3.70;99.90
8717;DHT22;4395;48.554;8.820;2022-12-11T07:24:31;-3.70;99.90
8717;DHT22;4395;48.554;8.820;2022-12-11T07:26:35;-3.60;99.90
8717;DHT22;4395;48.554;8.820;2022-12-11T07:28:38;-3.50;99.90
8717;DHT22;4395;48.554;8.820;2022-12-11T07:30:42;-3.50;99.90
8717;DHT22;4395;48.554;8.820;2022-12-11T07:32:45;-3.50;99.90
8717;DHT22;4395;48.554;8.820;2022-12-11T07:34:49;-3.50;99.90
8717;DHT22;4395;48.554;8.820;2022-12-11T07:36:53;-3.40;99.90
8717;DHT22;4395;48.554;8.820;2022-12-11T07:38:57;-3.50;99.90
8717;DHT22;4395;48.554;8.820;2022-12-11T07:41:02;-3.40;99.90
8717;DHT22;4395;48.554;8.820;2022-12-11T07:43:07;-3.40;99.90
8717;DHT22;4395;48.554;8.820;2022-12-11T07:45:10;-3.30;99.90
8717;DHT22;4395;48.554;8.820;2022-12-11T07:47:14;-3.30;99.90
8717;DHT22;4395;48.554;8.820;2022-12-11T07:49:17;-3.10;99.90
8717;DHT22;4395;48.554;8.820;2022-12-11T07:51:22;-3.00;99.90
8717;DHT22;4395;48.554;8.820;2022-12-11T07:53:28;-2.80;99.90
8717;DHT22;4395;48.554;8.820;2022-12-11T07:55:31;-2.80;99.90
8717;DHT22;4395;48.554;8.820;2022-12-11T07:57:36;-2.70;99.90
8717;DHT22;4395;48.554;8.820;2022-12-11T07:59:39;-2.60;99.90
8717;DHT22;4395;48.554;8.820;2022-12-11T08:01:42;-2.60;99.90
8717;DHT22;4395;48.554;8.820;2022-12-11T08:03:46;-2.60;99.90
8717;DHT22;4395;48.554;8.820;2022-12-11T08:05:50;-2.50;99.90
8717;DHT22;4395;48.554;8.820;2022-12-11T08:07:54;-2.40;99.90
8717;DHT22;4395;48.554;8.820;2022-12-11T08:09:57;-2.40;99.90
8717;DHT22;4395;48.554;8.820;2022-12-11T08:12:00;-2.30;99.90
8717;DHT22;4395;48.554;8.820;2022-12-11T08:14:05;-2.30;99.90
8717;DHT22;4395;48.554;8.820;2022-12-11T08:16:11;-2.20;99.90
8717;DHT22;4395;48.554;8.820;2022-12-11T08:18:15;-2.20;99.90
8717;DHT22;4395;48.554;8.820;2022-12-11T08:20:18;-2.20;99.90
8717;DHT22;4395;48.554;8.820;2022-12-11T08:22:22;-2.20;99.90
8717;DHT22;4395;48.554;8.820;2022-12-11T08:24:25;-2.10;99.90
8717;DHT22;4395;48.554;8.820;2022-12-11T08:26:29;-2.00;99.90
8717;DHT22;4395;48.554;8.820;2022-12-11T08:28:34;-1.90;99.90
8717;DHT22;4395;48.554;8.820;2022-12-11T08:30:39;-1.90;99.90
8717;DHT22;4395;48.554;8.820;2022-12-11T08:32:42;-1.90;99.90
8717;DHT22;4395;48.554;8.820;2022-12-11T08:34:45;-1.90;99.90
8717;DHT22;4395;48.554;8.820;2022-12-11T08:36:48;-1.90;99.90
8717;DHT22;4395;48.554;8.820;2022-12-11T08:38:53;-1.80;99.90
8717;DHT22;4395;48.554;8.820;2022-12-11T08:40:57;-1.70;99.90
8717;DHT22;4395;48.554;8.820;2022-12-11T08:43:00;-1.60;99.90
8717;DHT22;4395;48.554;8.820;2022-12-11T08:45:04;-1.70;99.90
8717;DHT22;4395;48.554;8.820;2022-12-11T08:47:10;-1.60;99.90
8717;DHT22;4395;48.554;8.820;2022-12-11T08:49:13;-1.60;99.90
8717;DHT22;4395;48.554;8.820;2022-12-11T08:51:18;-1.40;99.90
8717;DHT22;4395;48.554;8.820;2022-12-11T08:53:23;-1.50;99.90
8717;DHT22;4395;48.554;8.820;2022-12-11T08:55:26;-1.60;99.90
8717;DHT22;4395;48.554;8.820;2022-12-11T08:57:29;-1.60;99.90
8717;DHT22;4395;48.554;8.820;2022-12-11T08:59:32;-1.40;99.90
8717;DHT22;4395;48.554;8.820;2022-12-11T09:01:36;-1.40;99.90
8717;DHT22;4395;48.554;8.820;2022-12-11T09:03:40;-1.40;99.90
8717;DHT22;4395;48.554;8.820;2022-12-11T09:05:44;-1.40;99.90
8717;DHT22;4395;48.554;8.820;2022-12-11T09:07:47;-1.30;99.90
8717;DHT22;4395;48.554;8.820;2022-12-11T09:09:53;-1.50;99.90
8717;DHT22;4395;48.554;8.820;2022-12-11T09:11:56;-1.50;99.90
8717;DHT22;4395;48.554;8.820;2022-12-11T09:14:00;-1.20;99.90
8717;DHT22;4395;48.554;8.820;2022-12-11T09:16:10;-1.20;99.90
8717;DHT22;4395;48.554;8.820;2022-12-11T09:18:14;-0.90;99.90
8717;DHT22;4395;48.554;8.820;2022-12-11T09:20:19;-0.90;99.90
8717;DHT22;4395;48.554;8.820;2022-12-11T09:22:22;-0.50;99.90
8717;DHT22;4395;48.554;8.820;2022-12-11T09:24:25;-0.20;99.90
8717;DHT22;4395;48.554;8.820;2022-12-11T09:26:29;-0.10;99.90
8717;DHT22;4395;48.554;8.820;2022-12-11T09:28:33;0.00;99.90
8717;DHT22;4395;48.554;8.820;2022-12-11T09:30:39;0.10;99.90
8717;DHT22;4395;48.554;8.820;2022-12-11T09:32:42;0.20;99.90
8717;DHT22;4395;48.554;8.820;2022-12-11T09:34:49;0.20;99.90
8717;DHT22;4395;48.554;8.820;2022-12-11T09:36:53;0.40;99.90
8717;DHT22;4395;48.554;8.820;2022-12-11T09:38:59;0.40;99.90
8717;DHT22;4395;48.554;8.820;2022-12-11T09:41:19;0.30;99.90
8717;DHT22;4395;48.554;8.820;2022-12-11T09:43:36;0.30;99.90
8717;DHT22;4395;48.554;8.820;2022-12-11T09:45:40;0.30;99.90
8717;DHT22;4395;48.554;8.820;2022-12-11T09:47:45;0.20;99.90
8717;DHT22;4395;48.554;8.820;2022-12-11T09:49:56;0.20;99.90
8717;DHT22;4395;48.554;8.820;2022-12-11T09:52:10;0.20;99.90
8717;DHT22;4395;48.554;8.820;2022-12-11T09:54:15;0.10;99.90
8717;DHT22;4395;48.554;8.820;2022-12-11T09:56:24;0.20;99.90
8717;DHT22;4395;48.554;8.820;2022-12-11T09:58:36;0.10;99.90
8717;DHT22;4395;48.554;8.820;2022-12-11T10:00:47;0.10;99.90
8717;DHT22;4395;48.554;8.820;2022-12-11T10:03:21;0.10;99.90
8717;DHT22;4395;48.554;8.820;2022-12-11T10:05:41;0.10;99.90
8717;DHT22;4395;48.554;8.820;2022-12-11T10:07:56;0.00;99.90
8717;DHT22;4395;48.554;8.820;2022-12-11T10:10:08;-0.10;99.90
8717;DHT22;4395;48.554;8.820;2022-12-11T10:12:25;-0.10;99.90
8717;DHT22;4395;48.554;8.820;2022-12-11T10:14:46;-0.10;99.90
8717;DHT22;4395;48.554;8.820;2022-12-11T10:17:00;0.00;99.90
8717;DHT22;4395;48.554;8.820;2022-12-11T10:19:07;0.10;99.90
8717;DHT22;4395;48.554;8.820;2022-12-11T10:21:17;0.10;99.90
8717;DHT22;4395;48.554;8.820;2022-12-11T10:23:27;0.10;99.90
8717;DHT22;4395;48.554;8.820;2022-12-11T10:25:39;0.20;99.90
8717;DHT22;4395;48.554;8.820;2022-12-11T10:27:43;0.10;99.90
8717;DHT22;4395;48.554;8.820;2022-12-11T10:30:00;0.00;99.90
8717;DHT22;4395;48.554;8.820;2022-12-11T10:32:15;0.10;99.90
8717;DHT22;4395;48.554;8.820;2022-12-11T10:34:32;0.10;99.90
8717;DHT22;4395;48.554;8.820;2022-12-11T10:36:38;0.10;99.90
8717;DHT22;4395;48.554;8.820;2022-12-11T10:38:44;0.30;99.90
8717;DHT22;4395;48.554;8.820;2022-12-11T10:40:51;0.30;99.90
8717;DHT22;4395;48.554;8.820;2022-12-11T10:42:56;0.40;99.90
8717;DHT22;4395;48.554;8.820;2022-12-11T10:45:00;0.30;99.90
8717;DHT22;4395;48.554;8.820;2022-12-11T10:47:09;0.40;99.90
8717;DHT22;4395;48.554;8.820;2022-12-11T10:49:22;0.50;99.90
8717;DHT22;4395;48.554;8.820;2022-12-11T10:51:33;0.60;99.90
8717;DHT22;4395;48.554;8.820;2022-12-11T10:53:39;0.60;99.90
8717;DHT22;4395;48.554;8.820;2022-12-11T10:55:47;0.60;99.90
8717;DHT22;4395;48.554;8.820;2022-12-11T10:57:55;0.50;99.90
8717;DHT22;4395;48.554;8.820;2022-12-11T11:00:00;0.60;99.90
8717;DHT22;4395;48.554;8.820;2022-12-11T11:02:18;0.60;99.90
8717;DHT22;4395;48.554;8.820;2022-12-11T11:04:28;0.60;99.90
8717;DHT22;4395;48.554;8.820;2022-12-11T11:06:33;0.60;99.90
8717;DHT22;4395;48.554;8.820;2022-12-11T11:08:39;0.70;99.90
8717;DHT22;4395;48.554;8.820;2022-12-11T11:10:54;0.70;99.90
8717;DHT22;4395;48.554;8.820;2022-12-11T11:13:00;0.80;99.90
8717;DHT22;4395;48.554;8.820;2022-12-11T11:15:06;0.70;99.90
8717;DHT22;4395;48.554;8.820;2022-12-11T11:17:15;0.70;99.90
8717;DHT22;4395;48.554;8.820;2022-12-11T11:19:22;0.70;99.90
8717;DHT22;4395;48.554;8.820;2022-12-11T11:21:26;0.70;99.90
8717;DHT22;4395;48.554;8.820;2022-12-11T11:23:30;0.90;99.90
8717;DHT22;4395;48.554;8.820;2022-12-11T11:25:48;0.90;99.90
8717;DHT22;4395;48.554;8.820;2022-12-11T11:27:57;0.80;99.90
8717;DHT22;4395;48.554;8.820;2022-12-11T11:30:04;0.80;99.90
8717;DHT22;4395;48.554;8.820;2022-12-11T11:32:16;0.80;99.90
8717;DHT22;4395;48.554;8.820;2022-12-11T11:34:20;0.80;99.90
8717;DHT22;4395;48.554;8.820;2022-12-11T11:36:26;0.80;99.90
8717;DHT22;4395;48.554;8.820;2022-12-11T11:38:32;0.80;99.90
8717;DHT22;4395;48.554;8.820;2022-12-11T11:40:41;0.70;99.90
8717;DHT22;4395;48.554;8.820;2022-12-11T11:42:51;0.80;99.90
8717;DHT22;4395;48.554;8.820;2022-12-11T11:45:08;0.80;99.90
8717;DHT22;4395;48.554;8.820;2022-12-11T11:47:18;0.70;99.90
8717;DHT22;4395;48.554;8.820;2022-12-11T11:49:31;0.90;99.90
8717;DHT22;4395;48.554;8.820;2022-12-11T11:51:46;0.90;99.90
8717;DHT22;4395;48.554;8.820;2022-12-11T11:53:55;0.90;99.90
8717;DHT22;4395;48.554;8.820;2022-12-11T11:56:04;0.80;99.90
8717;DHT22;4395;48.554;8.820;2022-12-11T11:58:16;0.80;99.90
8717;DHT22;4395;48.554;8.820;2022-12-11T12:00:25;0.80;99.90
8717;DHT22;4395;48.554;8.820;2022-12-11T12:02:35;0.90;99.90
8717;DHT22;4395;48.554;8.820;2022-12-11T12:04:38;1.00;99.90
8717;DHT22;4395;48.554;8.820;2022-12-11T12:06:56;0.90;99.90
8717;DHT22;4395;48.554;8.820;2022-12-11T12:09:18;0.90;99.90
8717;DHT22;4395;48.554;8.820;2022-12-11T12:11:33;0.90;99.90
8717;DHT22;4395;48.554;8.820;2022-12-11T12:13:47;1.00;99.90
8717;DHT22;4395;48.554;8.820;2022-12-11T12:15:56;1.10;99.90
8717;DHT22;4395;48.554;8.820;2022-12-11T12:18:10;1.10;99.90
8717;DHT22;4395;48.554;8.820;2022-12-11T12:20:27;1.20;99.90
8717;DHT22;4395;48.554;8.820;2022-12-11T12:22:53;1.20;99.90
8717;DHT22;4395;48.554;8.820;2022-12-11T12:25:09;1.20;99.90
8717;DHT22;4395;48.554;8.820;2022-12-11T12:27:21;1.20;99.90
8717;DHT22;4395;48.554;8.820;2022-12-11T12:29:51;1.20;99.90
8717;DHT22;4395;48.554;8.820;2022-12-11T12:32:06;1.20;99.90
8717;DHT22;4395;48.554;8.820;2022-12-11T12:34:17;1.30;99.90
8717;DHT22;4395;48.554;8.820;2022-12-11T12:36:32;1.40;99.90
8717;DHT22;4395;48.554;8.820;2022-12-11T12:38:52;1.30;99.90
8717;DHT22;4395;48.554;8.820;2022-12-11T12:41:04;1.30;99.90
8717;DHT22;4395;48.554;8.820;2022-12-11T12:43:30;1.30;99.90
8717;DHT22;4395;48.554;8.820;2022-12-11T12:46:04;1.30;99.90
8717;DHT22;4395;48.554;8.820;2022-12-11T12:48:13;1.30;99.90
8717;DHT22;4395;48.554;8.820;2022-12-11T12:50:18;1.30;99.90
8717;DHT22;4395;48.554;8.820;2022-12-11T12:52:29;1.40;99.90
8717;DHT22;4395;48.554;8.820;2022-12-11T12:54:34;1.40;99.90
8717;DHT22;4395;48.554;8.820;2022-12-11T12:56:38;1.40;99.90
8717;DHT22;4395;48.554;8.820;2022-12-11T12:58:44;1.40;99.90
8717;DHT22;4395;48.554;8.820;2022-12-11T13:00:48;1.40;99.90
8717;DHT22;4395;48.554;8.820;2022-12-11T13:02:53;1.40;99.90
8717;DHT22;4395;48.554;8.820;2022-12-11T13:04:59;1.40;99.90
8717;DHT22;4395;48.554;8.820;2022-12-11T13:07:18;1.40;99.90
8717;DHT22;4395;48.554;8.820;2022-12-11T13:09:25;1.40;99.90
8717;DHT22;4395;48.554;8.820;2022-12-11T13:11:33;1.50;99.90
8717;DHT22;4395;48.554;8.820;2022-12-11T13:13:38;1.50;99.90
8717;DHT22;4395;48.554;8.820;2022-12-11T13:15:42;1.50;99.90
8717;DHT22;4395;48.554;8.820;2022-12-11T13:17:46;1.50;99.90
8717;DHT22;4395;48.554;8.820;2022-12-11T13:20:04;1.60;99.90
8717;DHT22;4395;48.554;8.820;2022-12-11T13:22:21;1.60;99.90
8717;DHT22;4395;48.554;8.820;2022-12-11T13:24:27;1.60;99.90
8717;DHT22;4395;48.554;8.820;2022-12-11T13:26:33;1.60;99.90
8717;DHT22;4395;48.554;8.820;2022-12-11T13:28:46;1.70;99.90
8717;DHT22;4395;48.554;8.820;2022-12-11T13:31:06;1.70;99.90
8717;DHT22;4395;48.554;8.820;2022-12-11T13:33:41;1.60;99.90
8717;DHT22;4395;48.554;8.820;2022-12-11T13:35:47;2.00;99.90
8717;DHT22;4395;48.554;8.820;2022-12-11T13:37:51;3.50;99.90
8717;DHT22;4395;48.554;8.820;2022-12-11T13:39:55;3.40;99.90
8717;DHT22;4395;48.554;8.820;2022-12-11T13:42:00;2.60;99.90
8717;DHT22;4395;48.554;8.820;2022-12-11T13:44:06;2.20;99.90
8717;DHT22;4395;48.554;8.820;2022-12-11T13:46:11;1.90;99.90
8717;DHT22;4395;48.554;8.820;2022-12-11T13:48:23;1.80;99.90
8717;DHT22;4395;48.554;8.820;2022-12-11T13:50:32;1.60;99.90
8717;DHT22;4395;48.554;8.820;2022-12-11T13:52:38;2.50;99.90